createdAt,value
2022-10-11T00:01:48.720Z,47.70
2022-10-11T00:04:16.108Z,47.29
2022-10-11T00:06:43.249Z,47.45
2022-10-11T00:09:11.728Z,47.67
2022-10-11T00:11:39.107Z,47.57
2022-10-11T00:14:06.687Z,47.74
2022-10-11T00:16:34.627Z,47.58
2022-10-11T00:19:01.688Z,47.54
2022-10-11T00:21:28.806Z,47.53
2022-10-11T00:23:55.968Z,47.65
2022-10-11T00:26:24.466Z,47.91
2022-10-11T00:28:53.154Z,47.66
2022-10-11T00:31:20.687Z,47.81
2022-10-11T00:33:48.685Z,47.60
2022-10-11T00:36:16.487Z,48.12
2022-10-11T00:38:44.486Z,48.15
2022-10-11T00:41:12.525Z,47.93
2022-10-11T00:43:41.471Z,48.16
2022-10-11T00:46:35.567Z,47.86
2022-10-11T00:49:10.427Z,47.90
2022-10-11T00:51:47.226Z,48.27
2022-10-11T00:54:20.712Z,48.32
2022-10-11T00:56:54.310Z,47.94
2022-10-11T00:59:28.766Z,47.93
2022-10-11T01:01:56.545Z,48.27
2022-10-11T01:04:23.845Z,48.14
2022-10-11T01:06:53.344Z,47.90
2022-10-11T01:09:22.486Z,48.35
2022-10-11T01:11:56.206Z,48.27
2022-10-11T01:14:55.807Z,48.20
2022-10-11T01:17:35.846Z,48.08
2022-10-11T01:20:28.028Z,48.39
2022-10-11T01:23:27.186Z,48.00
2022-10-11T01:26:20.709Z,47.88
2022-10-11T01:29:00.987Z,47.78
2022-10-11T01:31:40.167Z,47.59
2022-10-11T01:34:17.238Z,47.38
2022-10-11T01:36:53.607Z,47.37
2022-10-11T01:39:29.206Z,46.96
2022-10-11T01:42:02.987Z,47.55
2022-10-11T01:44:32.848Z,47.15
2022-10-11T01:47:01.366Z,47.45
2022-10-11T01:49:28.528Z,47.63
2022-10-11T01:52:00.485Z,47.65
2022-10-11T01:55:08.624Z,47.59
2022-10-11T01:58:08.946Z,57.16
2022-10-11T02:00:49.765Z,54.25
2022-10-11T02:03:31.591Z,54.58
2022-10-11T02:06:08.966Z,53.70
2022-10-11T02:08:47.487Z,53.65
2022-10-11T02:11:22.527Z,52.33
2022-10-11T02:13:57.727Z,50.61
2022-10-11T02:16:34.506Z,50.67
2022-10-11T02:19:09.145Z,50.28
2022-10-11T02:21:43.592Z,49.76
2022-10-11T02:24:17.099Z,49.35
2022-10-11T02:26:50.406Z,48.33
2022-10-11T02:29:19.946Z,49.10
2022-10-11T02:31:50.427Z,47.72
2022-10-11T02:34:24.845Z,48.04
2022-10-11T02:37:04.267Z,47.74
2022-10-11T02:39:39.270Z,47.88
2022-10-11T02:42:14.270Z,47.17
2022-10-11T02:44:46.606Z,46.61
2022-10-11T02:47:15.326Z,46.83
2022-10-11T02:49:43.766Z,46.46
2022-10-11T02:52:10.804Z,46.44
2022-10-11T02:54:37.866Z,46.19
2022-10-11T02:57:04.846Z,46.56
2022-10-11T02:59:31.886Z,46.08
2022-10-11T03:01:59.824Z,45.69
2022-10-11T03:04:27.125Z,45.57
2022-10-11T03:06:55.666Z,45.75
2022-10-11T03:09:22.645Z,45.68
2022-10-11T03:11:49.767Z,45.60
2022-10-11T03:14:16.898Z,45.58
2022-10-11T03:16:43.886Z,45.87
2022-10-11T03:19:12.281Z,45.62
2022-10-11T03:21:40.786Z,45.79
2022-10-11T03:24:09.447Z,45.12
2022-10-11T03:26:36.526Z,45.68
2022-10-11T03:29:03.586Z,45.79
2022-10-11T03:31:30.645Z,45.76
2022-10-11T03:33:57.726Z,45.83
2022-10-11T03:36:24.766Z,45.87
2022-10-11T03:38:51.830Z,45.49
2022-10-11T03:41:20.408Z,45.26
2022-10-11T03:43:47.485Z,45.75
2022-10-11T03:46:14.690Z,45.80
2022-10-11T03:48:41.729Z,45.76
2022-10-11T03:51:08.906Z,45.67
2022-10-11T03:53:35.906Z,46.04
2022-10-11T03:56:07.490Z,45.69
2022-10-11T03:58:37.148Z,45.52
2022-10-11T04:01:04.205Z,45.82
2022-10-11T04:03:31.310Z,45.74
2022-10-11T04:05:58.367Z,45.87
2022-10-11T04:08:25.487Z,45.25
2022-10-11T04:10:52.567Z,45.86
2022-10-11T04:13:19.628Z,45.54
2022-10-11T04:15:48.166Z,45.97
2022-10-11T04:18:15.306Z,45.84
2022-10-11T04:20:42.307Z,45.52
2022-10-11T04:23:09.346Z,45.73
2022-10-11T04:25:38.405Z,45.37
2022-10-11T04:28:05.825Z,45.48
2022-10-11T04:30:32.886Z,45.60
2022-10-11T04:33:01.386Z,45.86
2022-10-11T04:35:28.425Z,45.88
2022-10-11T04:37:55.725Z,45.95
2022-10-11T04:40:22.824Z,45.68
2022-10-11T04:42:49.828Z,45.67
2022-10-11T04:45:17.144Z,45.63
2022-10-11T04:47:44.186Z,45.67
2022-10-11T04:50:12.667Z,45.35
2022-10-11T04:52:39.706Z,45.03
2022-10-11T04:55:07.405Z,45.53
2022-10-11T04:57:34.426Z,45.77
2022-10-11T05:00:01.465Z,45.89
2022-10-11T05:02:28.513Z,45.49
2022-10-11T05:04:55.705Z,45.79
2022-10-11T05:07:24.326Z,45.94
2022-10-11T05:09:51.388Z,45.62
2022-10-11T05:12:18.409Z,45.93
2022-10-11T05:14:45.548Z,45.21
2022-10-11T05:17:12.708Z,45.41
2022-10-11T05:19:39.847Z,46.13
2022-10-11T05:22:06.906Z,45.71
2022-10-11T05:24:35.425Z,46.11
2022-10-11T05:27:03.581Z,45.80
2022-10-11T05:29:31.149Z,46.02
2022-10-11T05:31:58.187Z,45.83
2022-10-11T05:34:25.227Z,45.42
2022-10-11T05:36:52.269Z,48.20
2022-10-11T05:39:19.366Z,47.35
2022-10-11T05:41:47.867Z,45.72
2022-10-11T05:44:14.906Z,45.74
2022-10-11T05:46:41.967Z,44.92
2022-10-11T05:49:09.000Z,45.20
2022-10-11T05:51:36.049Z,45.37
2022-10-11T05:54:03.107Z,45.47
2022-10-11T05:56:30.187Z,45.70
2022-10-11T05:59:02.244Z,45.54
2022-10-11T06:01:29.881Z,46.02
2022-10-11T06:03:57.108Z,46.04
2022-10-11T06:06:24.447Z,46.01
2022-10-11T06:08:51.487Z,45.74
2022-10-11T06:11:22.207Z,46.00
2022-10-11T06:13:49.326Z,48.46
2022-10-11T06:16:17.867Z,45.99
2022-10-11T06:18:44.971Z,45.01
2022-10-11T06:21:12.688Z,44.68
2022-10-11T06:23:39.808Z,44.39
2022-10-11T06:26:09.345Z,44.02
2022-10-11T06:28:37.475Z,43.51
2022-10-11T06:31:06.385Z,43.30
2022-10-11T06:33:35.021Z,43.32
2022-10-11T06:36:06.507Z,42.85
2022-10-11T06:38:34.027Z,42.80
2022-10-11T06:41:10.326Z,42.89
2022-10-11T06:43:37.367Z,43.65
2022-10-11T06:46:04.718Z,44.05
2022-10-11T06:48:32.027Z,44.25
2022-10-11T06:51:01.196Z,44.46
2022-10-11T06:53:28.426Z,44.07
2022-10-11T06:56:02.360Z,43.68
2022-10-11T06:58:29.869Z,44.28
2022-10-11T07:01:00.814Z,44.08
2022-10-11T07:03:29.147Z,44.42
2022-10-11T07:06:02.878Z,44.46
2022-10-11T07:08:30.550Z,44.23
2022-10-11T07:11:00.348Z,43.69
2022-10-11T07:13:27.426Z,43.14
2022-10-11T07:15:54.526Z,42.89
2022-10-11T07:18:21.591Z,42.74
2022-10-11T07:20:48.835Z,42.41
2022-10-11T07:23:17.608Z,42.10
2022-10-11T07:25:45.138Z,41.75
2022-10-11T07:28:12.602Z,41.35
2022-10-11T07:30:41.247Z,40.95
2022-10-11T07:33:08.447Z,40.20
2022-10-11T07:35:36.788Z,40.20
2022-10-11T07:38:05.332Z,39.82
2022-10-11T07:40:40.608Z,39.43
2022-10-11T07:43:07.648Z,39.35
2022-10-11T07:45:36.728Z,39.61
2022-10-11T07:48:04.197Z,39.50
2022-10-11T07:50:31.807Z,39.18
2022-10-11T07:52:58.906Z,38.97
2022-10-11T07:55:25.966Z,39.06
2022-10-11T07:57:54.651Z,38.64
2022-10-11T08:00:22.307Z,38.67
2022-10-11T08:02:49.411Z,38.80
2022-10-11T08:05:16.687Z,38.94
2022-10-11T08:07:43.708Z,38.99
2022-10-11T08:10:11.259Z,39.05
2022-10-11T08:12:38.369Z,38.60
2022-10-11T08:15:08.106Z,38.77
2022-10-11T08:17:35.147Z,38.98
2022-10-11T08:20:02.188Z,38.10
2022-10-11T08:22:29.248Z,38.58
2022-10-11T08:24:56.289Z,38.31
2022-10-11T08:27:23.466Z,38.33
2022-10-11T08:29:50.793Z,38.24
2022-10-11T08:32:19.372Z,38.43
2022-10-11T08:34:46.530Z,38.16
2022-10-11T08:37:13.586Z,37.37
2022-10-11T08:39:40.585Z,37.85
2022-10-11T08:42:17.198Z,37.54
2022-10-11T08:45:10.007Z,37.91
2022-10-11T08:47:44.447Z,37.48
2022-10-11T08:50:20.173Z,37.42
2022-10-11T08:52:53.914Z,37.30
2022-10-11T08:55:28.834Z,37.22
2022-10-11T08:57:58.528Z,37.42
2022-10-11T09:00:32.950Z,37.14
2022-10-11T09:03:09.213Z,37.03
2022-10-11T09:05:53.667Z,37.10
2022-10-11T09:08:33.227Z,37.13
2022-10-11T09:11:10.506Z,36.94
2022-10-11T09:14:07.026Z,37.04
2022-10-11T09:16:47.828Z,37.18
2022-10-11T09:19:37.466Z,37.67
2022-10-11T09:22:16.946Z,37.66
2022-10-11T09:25:04.949Z,37.95
2022-10-11T09:28:01.349Z,36.97
2022-10-11T09:30:25.485Z,37.23
2022-10-11T09:33:10.527Z,38.03
2022-10-11T09:35:42.968Z,37.94
2022-10-11T09:38:24.658Z,37.70
2022-10-11T09:41:04.167Z,37.80
2022-10-11T09:43:31.605Z,38.01
2022-10-11T09:45:58.707Z,37.65
2022-10-11T09:48:30.686Z,37.25
2022-10-11T09:51:06.495Z,36.86
2022-10-11T09:53:58.128Z,37.67
2022-10-11T09:56:28.028Z,37.95
2022-10-11T09:59:27.686Z,38.20
2022-10-11T10:02:20.212Z,37.42
2022-10-11T10:05:16.267Z,38.22
2022-10-11T10:08:05.342Z,38.12
2022-10-11T10:10:37.251Z,38.51
2022-10-11T10:13:18.279Z,38.50
2022-10-11T10:15:48.360Z,38.50
2022-10-11T10:18:23.446Z,38.20
2022-10-11T10:20:56.448Z,36.94
2022-10-11T10:23:29.106Z,37.55
2022-10-11T10:26:12.268Z,37.73
2022-10-11T10:28:39.889Z,37.82
2022-10-11T10:31:22.586Z,38.64
2022-10-11T10:33:54.766Z,38.17
2022-10-11T10:36:29.328Z,38.05
2022-10-11T10:39:08.188Z,37.85
2022-10-11T10:41:35.330Z,37.03
2022-10-11T10:44:03.487Z,38.31
2022-10-11T10:46:47.885Z,37.64
2022-10-11T10:52:49.329Z,38.67
2022-10-11T10:55:25.948Z,38.39
2022-10-11T10:58:16.341Z,39.50
2022-10-11T11:00:49.237Z,39.81
2022-10-11T11:03:24.662Z,38.06
2022-10-11T11:06:01.910Z,39.13
2022-10-11T11:08:45.608Z,39.05
2022-10-11T11:11:30.908Z,38.10
2022-10-11T11:14:09.729Z,39.61
2022-10-11T11:16:48.827Z,40.02
2022-10-11T11:19:35.646Z,38.72
2022-10-11T11:22:15.270Z,37.92
2022-10-11T11:24:57.004Z,38.54
2022-10-11T11:27:42.607Z,38.30
2022-10-11T11:30:16.628Z,39.35
2022-10-11T11:32:56.430Z,41.17
2022-10-11T11:35:31.168Z,39.00
2022-10-11T11:38:06.554Z,39.65
2022-10-11T11:40:39.687Z,39.00
2022-10-11T11:43:22.208Z,41.02
2022-10-11T11:45:55.307Z,41.20
2022-10-11T11:48:26.229Z,40.87
2022-10-11T11:51:02.835Z,40.61
2022-10-11T11:53:51.212Z,41.19
2022-10-11T11:56:30.152Z,41.17
2022-10-11T11:59:10.221Z,41.45
2022-10-11T12:01:44.890Z,41.85
2022-10-11T12:04:22.307Z,41.23
2022-10-11T12:07:15.836Z,40.32
2022-10-11T12:09:47.627Z,40.70
2022-10-11T12:12:29.310Z,40.70
2022-10-11T12:15:17.034Z,41.47
2022-10-11T12:18:04.267Z,41.49
2022-10-11T12:20:34.089Z,41.82
2022-10-11T12:23:01.688Z,42.13
2022-10-11T12:25:40.766Z,41.58
2022-10-11T12:28:45.862Z,42.94
2022-10-11T12:31:22.550Z,42.55
2022-10-11T12:33:54.115Z,42.95
2022-10-11T12:36:37.308Z,41.99
2022-10-11T12:39:37.355Z,40.13
2022-10-11T12:42:18.365Z,42.68
2022-10-11T12:45:29.130Z,43.16
2022-10-11T12:48:10.767Z,42.91
2022-10-11T12:50:52.226Z,41.92
2022-10-11T12:53:37.427Z,42.94
2022-10-11T12:56:14.847Z,42.76
2022-10-11T12:58:48.269Z,42.80
2022-10-11T13:01:22.149Z,43.25
2022-10-11T13:04:00.449Z,42.76
2022-10-11T13:06:32.512Z,43.59
2022-10-11T13:09:05.271Z,43.29
2022-10-11T13:11:37.087Z,43.51
2022-10-11T13:14:10.487Z,43.75
2022-10-11T13:17:04.850Z,43.89
2022-10-11T13:19:36.873Z,42.74
2022-10-11T13:22:15.267Z,43.30
2022-10-11T13:24:42.464Z,44.05
2022-10-11T13:27:19.328Z,43.49
2022-10-11T13:29:48.670Z,43.82
2022-10-11T13:32:21.708Z,43.53
2022-10-11T13:37:26.781Z,41.48
2022-10-11T13:39:56.446Z,41.57
2022-10-11T13:42:29.741Z,40.97
2022-10-11T13:44:58.382Z,42.07
2022-10-11T13:47:29.334Z,42.62
2022-10-11T13:50:10.546Z,41.13
2022-10-11T13:52:53.502Z,40.99
2022-10-11T13:55:27.494Z,41.33
2022-10-11T13:57:55.644Z,41.80
2022-10-11T14:00:27.322Z,41.33
2022-10-11T14:02:59.821Z,41.66
2022-10-11T14:05:35.489Z,42.29
2022-10-11T14:08:05.930Z,43.11
2022-10-11T14:10:34.327Z,41.77
2022-10-11T14:13:05.414Z,42.07
2022-10-11T14:15:35.287Z,41.50
2022-10-11T14:18:23.386Z,41.32
2022-10-11T14:20:51.942Z,42.17
2022-10-11T14:23:18.995Z,41.37
2022-10-11T14:25:46.068Z,42.87
2022-10-11T14:28:13.830Z,42.31
2022-10-11T14:30:41.742Z,41.77
2022-10-11T14:33:10.342Z,42.53
2022-10-11T14:35:37.591Z,42.88
2022-10-11T14:38:06.163Z,43.64
2022-10-11T14:40:33.566Z,42.49
2022-10-11T14:43:00.675Z,42.12
2022-10-11T14:45:27.905Z,41.40
2022-10-11T14:47:56.127Z,41.58
2022-10-11T14:50:38.506Z,42.67
2022-10-11T14:53:08.425Z,42.59
2022-10-11T14:55:36.743Z,42.97
2022-10-11T14:58:04.045Z,41.99
2022-10-11T15:00:31.848Z,40.92
2022-10-11T15:03:00.133Z,40.40
2022-10-11T15:05:34.009Z,40.09
2022-10-11T15:08:02.588Z,39.53
2022-10-11T15:10:36.507Z,40.71
2022-10-11T15:13:05.163Z,40.64
2022-10-11T15:15:32.706Z,40.49
2022-10-11T15:18:06.928Z,39.86
2022-10-11T15:20:37.307Z,40.07
2022-10-11T15:23:06.464Z,40.78
2022-10-11T15:25:35.503Z,40.83
2022-10-11T15:28:02.550Z,41.96
2022-10-11T15:30:33.955Z,44.91
2022-10-11T15:33:05.224Z,44.01
2022-10-11T15:35:32.264Z,42.86
2022-10-11T15:38:00.343Z,42.63
2022-10-11T15:40:32.132Z,41.74
2022-10-11T15:43:01.030Z,40.88
2022-10-11T15:45:29.003Z,40.77
2022-10-11T15:47:56.863Z,39.39
2022-10-11T15:50:26.003Z,39.88
2022-10-11T15:52:53.022Z,39.21
2022-10-11T15:55:20.063Z,39.07
2022-10-11T15:57:47.222Z,39.21
2022-10-11T16:00:21.992Z,38.76
2022-10-11T16:02:51.722Z,38.82
2022-10-11T16:05:19.602Z,38.57
2022-10-11T16:07:46.722Z,38.29
2022-10-11T16:10:14.521Z,38.14
2022-10-11T16:12:41.563Z,38.07
2022-10-11T16:15:10.224Z,37.97
2022-10-11T16:17:38.982Z,38.22
2022-10-11T16:20:08.062Z,37.92
2022-10-11T16:22:35.863Z,38.14
2022-10-11T16:25:04.383Z,38.05
2022-10-11T16:27:32.403Z,37.76
2022-10-11T16:30:00.863Z,37.75
2022-10-11T16:32:28.622Z,38.00
2022-10-11T16:34:57.162Z,37.74
2022-10-11T16:37:24.461Z,37.99
2022-10-11T16:39:51.523Z,39.14
2022-10-11T16:42:18.603Z,39.48
2022-10-11T16:44:45.621Z,42.46
2022-10-11T16:47:12.704Z,39.72
2022-10-11T16:49:39.882Z,39.78
2022-10-11T16:52:08.915Z,40.54
2022-10-11T16:54:35.986Z,40.29
2022-10-11T16:57:03.883Z,40.64
2022-10-11T16:59:30.961Z,40.46
2022-10-11T17:01:57.992Z,40.61
2022-10-11T17:04:25.083Z,40.54
2022-10-11T17:06:52.142Z,40.78
2022-10-11T17:09:20.703Z,41.31
2022-10-11T17:11:47.823Z,41.43
2022-10-11T17:14:14.862Z,41.82
2022-10-11T17:16:41.988Z,42.03
2022-10-11T17:19:10.724Z,42.11
2022-10-11T17:21:37.763Z,42.24
2022-10-11T17:24:06.047Z,42.22
2022-10-11T17:26:34.823Z,42.40
2022-10-11T17:29:02.206Z,42.57
2022-10-11T17:31:30.362Z,42.60
2022-10-11T17:33:59.705Z,42.92
2022-10-11T17:36:29.702Z,42.93
2022-10-11T17:38:57.657Z,42.94
2022-10-11T17:41:29.412Z,42.87
2022-10-11T17:44:00.622Z,42.98
2022-10-11T17:46:28.752Z,42.94
2022-10-11T17:48:56.285Z,43.25
2022-10-11T17:51:23.421Z,43.28
2022-10-11T17:53:51.790Z,43.27
2022-10-11T17:56:26.769Z,43.67
2022-10-11T17:58:56.983Z,43.87
2022-10-11T18:01:28.410Z,43.44
2022-10-11T18:03:57.643Z,43.78
2022-10-11T18:06:26.603Z,43.57
2022-10-11T18:08:53.683Z,43.74
2022-10-11T18:11:22.320Z,43.88
2022-10-11T18:13:52.925Z,43.45
2022-10-11T18:16:23.584Z,43.96
2022-10-11T18:18:52.163Z,43.42
2022-10-11T18:21:19.464Z,42.86
2022-10-11T18:23:47.084Z,43.47
2022-10-11T18:26:16.922Z,43.60
2022-10-11T18:28:45.253Z,44.32
2022-10-11T18:31:15.614Z,43.40
2022-10-11T18:33:44.083Z,44.26
2022-10-11T18:36:14.081Z,43.78
2022-10-11T18:38:43.363Z,43.88
2022-10-11T18:41:11.322Z,44.06
2022-10-11T18:43:38.421Z,44.02
2022-10-11T18:46:08.423Z,44.30
2022-10-11T18:48:43.564Z,44.41
2022-10-11T18:51:15.263Z,44.09
2022-10-11T18:53:42.923Z,44.10
2022-10-11T18:56:12.074Z,44.33
2022-10-11T18:58:40.862Z,43.81
2022-10-11T19:01:10.599Z,43.80
2022-10-11T19:03:38.746Z,43.57
2022-10-11T19:06:11.223Z,43.27
2022-10-11T19:08:39.782Z,43.52
2022-10-11T19:11:07.823Z,43.70
2022-10-11T19:13:35.682Z,43.06
2022-10-11T19:16:08.122Z,43.46
2022-10-11T19:18:37.489Z,43.24
2022-10-11T19:21:10.163Z,43.56
2022-10-11T19:23:40.964Z,44.12
2022-10-11T19:26:12.783Z,43.92
2022-10-11T19:28:40.002Z,43.29
2022-10-11T19:31:10.240Z,43.57
2022-10-11T19:33:39.242Z,44.43
2022-10-11T19:36:06.943Z,44.08
2022-10-11T19:38:35.343Z,44.31
2022-10-11T19:41:05.417Z,44.25
2022-10-11T19:43:32.529Z,44.03
2022-10-11T19:46:00.624Z,44.27
2022-10-11T19:48:27.845Z,44.51
2022-10-11T19:51:02.301Z,44.05
2022-10-11T19:53:30.622Z,44.08
2022-10-11T19:56:00.664Z,43.82
2022-10-11T19:58:29.762Z,44.19
2022-10-11T20:01:02.297Z,44.21
2022-10-11T20:03:29.743Z,44.26
2022-10-11T20:05:59.822Z,43.96
2022-10-11T20:08:26.984Z,43.30
2022-10-11T20:10:54.481Z,43.92
2022-10-11T20:13:21.564Z,43.42
2022-10-11T20:15:50.095Z,43.29
2022-10-11T20:18:17.165Z,45.11
2022-10-11T20:20:52.043Z,43.40
2022-10-11T20:23:23.666Z,43.51
2022-10-11T20:25:58.602Z,42.92
2022-10-11T20:28:26.827Z,43.11
2022-10-11T20:30:55.482Z,42.73
2022-10-11T20:33:22.704Z,43.17
2022-10-11T20:36:00.624Z,43.13
2022-10-11T20:38:29.742Z,43.15
2022-10-11T20:40:57.241Z,43.50
2022-10-11T20:43:25.082Z,43.56
2022-10-11T20:46:02.503Z,43.32
2022-10-11T20:48:30.744Z,43.93
2022-10-11T20:50:58.662Z,44.09
2022-10-11T20:53:27.023Z,44.25
2022-10-11T20:55:55.102Z,44.31
2022-10-11T20:58:24.905Z,44.63
2022-10-11T21:00:52.043Z,43.84
2022-10-11T21:03:20.583Z,44.09
2022-10-11T21:05:47.624Z,44.04
2022-10-11T21:08:14.702Z,44.16
2022-10-11T21:10:51.527Z,43.85
2022-10-11T21:13:18.944Z,44.52
2022-10-11T21:15:46.682Z,44.43
2022-10-11T21:18:14.593Z,44.58
2022-10-11T21:20:44.541Z,44.70
2022-10-11T21:23:14.503Z,43.63
2022-10-11T21:25:41.561Z,44.18
2022-10-11T21:28:09.217Z,45.09
2022-10-11T21:30:36.443Z,44.97
2022-10-11T21:33:03.524Z,44.25
2022-10-11T21:35:31.442Z,44.81
2022-10-11T21:38:00.159Z,44.83
2022-10-11T21:40:27.383Z,44.47
2022-10-11T21:42:54.641Z,44.31
2022-10-11T21:45:21.641Z,44.67
2022-10-11T21:47:48.802Z,44.69
2022-10-11T21:50:16.022Z,44.53
2022-10-11T21:52:43.041Z,44.86
2022-10-11T21:55:11.624Z,44.95
2022-10-11T21:57:38.700Z,45.33
2022-10-11T22:00:07.761Z,45.14
2022-10-11T22:02:34.970Z,45.28
2022-10-11T22:05:02.283Z,45.57
2022-10-11T22:07:29.360Z,45.47
2022-10-11T22:09:56.481Z,45.88
2022-10-11T22:12:25.003Z,45.66
2022-10-11T22:14:52.083Z,45.73
2022-10-11T22:17:19.162Z,46.13
2022-10-11T22:19:46.200Z,45.96
2022-10-11T22:22:13.262Z,46.39
2022-10-11T22:24:40.321Z,46.16
2022-10-11T22:27:07.683Z,46.54
2022-10-11T22:29:36.200Z,46.11
2022-10-11T22:32:03.262Z,46.06
2022-10-11T22:34:31.322Z,45.97
2022-10-11T22:36:58.421Z,46.42
2022-10-11T22:39:25.662Z,46.31
2022-10-11T22:41:53.642Z,46.84
2022-10-11T22:44:20.803Z,46.72
2022-10-11T22:46:49.265Z,46.61
2022-10-11T22:49:16.341Z,46.20
2022-10-11T22:51:43.382Z,45.92
2022-10-11T22:54:11.445Z,46.41
2022-10-11T22:56:38.587Z,46.04
2022-10-11T22:59:05.724Z,46.29
2022-10-11T23:01:33.122Z,46.00
2022-10-11T23:04:01.779Z,45.86
2022-10-11T23:06:28.855Z,45.70
2022-10-11T23:08:56.206Z,46.14
2022-10-11T23:11:23.323Z,45.80
2022-10-11T23:13:50.375Z,45.78
2022-10-11T23:16:17.442Z,46.23
2022-10-11T23:18:44.496Z,46.03
2022-10-11T23:21:13.041Z,45.80
2022-10-11T23:23:40.202Z,46.05
2022-10-11T23:26:11.302Z,46.01
2022-10-11T23:28:38.525Z,45.90
2022-10-11T23:31:11.142Z,46.15
2022-10-11T23:33:38.543Z,46.29
2022-10-11T23:36:06.741Z,46.32
2022-10-11T23:38:35.231Z,46.28
2022-10-11T23:41:02.263Z,46.17
2022-10-11T23:43:29.322Z,46.25
2022-10-11T23:45:56.362Z,46.22
2022-10-11T23:48:23.482Z,46.21
2022-10-11T23:50:50.621Z,46.01
2022-10-11T23:53:22.433Z,46.03
2022-10-11T23:55:51.380Z,46.39
2022-10-11T23:58:18.482Z,46.42
